createdAt,value
2018-12-15T00:01:13.437Z,1.90
2018-12-15T00:03:43.248Z,1.97
2018-12-15T00:06:13.464Z,2.12
2018-12-15T00:08:43.072Z,2.09
2018-12-15T00:11:12.616Z,2.12
2018-12-15T00:13:42.010Z,2.18
2018-12-15T00:16:11.308Z,2.16
2018-12-15T00:18:40.728Z,2.14
2018-12-15T00:21:10.109Z,2.07
2018-12-15T00:23:39.482Z,2.16
2018-12-15T00:26:08.802Z,2.07
2018-12-15T00:28:38.069Z,2.06
2018-12-15T00:31:07.255Z,2.07
2018-12-15T00:33:36.736Z,2.24
2018-12-15T00:36:12.450Z,2.27
2018-12-15T00:38:41.677Z,2.06
2018-12-15T00:41:11.380Z,1.93
2018-12-15T00:43:40.967Z,1.98
2018-12-15T00:46:10.492Z,2.03
2018-12-15T00:48:39.730Z,2.18
2018-12-15T00:51:09.093Z,2.39
2018-12-15T00:53:38.509Z,2.56
2018-12-15T00:56:07.780Z,2.33
2018-12-15T00:58:36.887Z,2.32
2018-12-15T01:01:06.331Z,2.34
2018-12-15T01:03:35.593Z,2.59
2018-12-15T01:06:04.841Z,2.54
2018-12-15T01:08:34.372Z,2.30
2018-12-15T01:11:04.055Z,2.39
2018-12-15T01:13:33.677Z,2.29
2018-12-15T01:16:03.720Z,2.40
2018-12-15T01:18:33.305Z,2.73
2018-12-15T01:21:02.624Z,2.56
2018-12-15T01:23:31.789Z,2.58
2018-12-15T01:26:01.037Z,2.41
2018-12-15T01:28:31.472Z,2.07
2018-12-15T01:31:00.903Z,2.35
2018-12-15T01:33:30.188Z,2.22
2018-12-15T01:35:59.579Z,2.08
2018-12-15T01:38:28.874Z,2.06
2018-12-15T01:40:58.131Z,2.17
2018-12-15T01:43:27.287Z,2.24
2018-12-15T01:45:56.684Z,2.35
2018-12-15T01:48:25.913Z,2.15
2018-12-15T01:50:55.210Z,2.27
2018-12-15T01:53:24.418Z,2.12
2018-12-15T01:55:53.736Z,1.98
2018-12-15T01:58:22.795Z,2.04
2018-12-15T02:00:52.295Z,2.07
2018-12-15T02:03:21.509Z,2.08
2018-12-15T02:05:50.775Z,2.16
2018-12-15T02:08:20.288Z,2.39
2018-12-15T02:10:49.475Z,2.63
2018-12-15T02:13:18.587Z,2.82
2018-12-15T02:15:47.864Z,2.85
2018-12-15T02:18:17.261Z,2.50
2018-12-15T02:20:46.751Z,2.38
2018-12-15T02:23:16.077Z,2.32
2018-12-15T02:25:45.276Z,2.32
2018-12-15T02:28:14.750Z,2.18
2018-12-15T02:30:43.982Z,2.14
2018-12-15T02:33:13.173Z,2.18
2018-12-15T02:35:42.684Z,2.24
2018-12-15T02:38:12.033Z,2.19
2018-12-15T02:40:41.388Z,2.31
2018-12-15T02:43:10.807Z,2.23
2018-12-15T02:45:40.194Z,2.42
2018-12-15T02:48:09.556Z,2.37
2018-12-15T02:50:38.759Z,2.18
2018-12-15T02:53:08.116Z,2.42
2018-12-15T02:55:37.409Z,2.17
2018-12-15T02:58:06.842Z,2.14
2018-12-15T03:00:36.226Z,2.09
2018-12-15T03:03:05.501Z,2.40
2018-12-15T03:05:34.779Z,2.64
2018-12-15T03:08:04.044Z,2.81
2018-12-15T03:10:33.367Z,3.00
2018-12-15T03:13:02.627Z,3.46
2018-12-15T03:15:32.026Z,3.05
2018-12-15T03:18:01.418Z,2.84
2018-12-15T03:20:30.663Z,2.61
2018-12-15T03:22:59.991Z,3.08
2018-12-15T03:25:29.164Z,3.74
2018-12-15T03:27:58.425Z,4.05
2018-12-15T03:30:27.696Z,4.25
2018-12-15T03:32:57.013Z,4.47
2018-12-15T03:35:26.161Z,4.58
2018-12-15T03:37:55.476Z,4.70
2018-12-15T03:40:24.552Z,4.64
2018-12-15T03:42:53.819Z,4.54
2018-12-15T03:45:23.032Z,4.41
2018-12-15T03:47:56.147Z,4.41
2018-12-15T03:50:23.622Z,4.53
2018-12-15T03:52:52.884Z,4.43
2018-12-15T03:55:22.084Z,3.76
2018-12-15T03:57:51.440Z,3.00
2018-12-15T04:00:20.719Z,3.39
2018-12-15T04:02:50.124Z,3.58
2018-12-15T04:05:19.544Z,3.29
2018-12-15T04:07:48.968Z,3.75
2018-12-15T04:10:18.271Z,4.12
2018-12-15T04:12:47.616Z,4.10
2018-12-15T04:15:17.045Z,3.40
2018-12-15T04:17:46.490Z,3.22
2018-12-15T04:20:15.580Z,3.13
2018-12-15T04:22:44.715Z,2.74
2018-12-15T04:25:14.092Z,2.22
2018-12-15T04:27:43.129Z,2.17
2018-12-15T04:30:12.464Z,2.32
2018-12-15T04:32:45.113Z,2.49
2018-12-15T04:35:12.993Z,2.66
2018-12-15T04:37:43.075Z,2.49
2018-12-15T04:40:13.168Z,2.82
2018-12-15T04:42:42.487Z,2.61
2018-12-15T04:45:11.781Z,1.76
2018-12-15T04:47:41.753Z,1.82
2018-12-15T04:50:10.927Z,1.58
2018-12-15T04:52:40.085Z,1.31
2018-12-15T04:55:09.450Z,1.20
2018-12-15T04:57:39.790Z,1.26
2018-12-15T05:00:09.273Z,1.33
2018-12-15T05:02:43.849Z,1.42
2018-12-15T05:05:09.731Z,1.54
2018-12-15T05:07:39.076Z,1.51
2018-12-15T05:10:08.336Z,1.24
2018-12-15T05:12:37.782Z,1.29
2018-12-15T05:15:07.236Z,1.51
2018-12-15T05:17:36.471Z,1.40
2018-12-15T05:20:07.362Z,1.60
2018-12-15T05:22:36.805Z,1.48
2018-12-15T05:25:06.680Z,1.71
2018-12-15T05:27:35.993Z,1.49
2018-12-15T05:30:05.817Z,1.51
2018-12-15T05:32:35.164Z,1.14
2018-12-15T05:35:04.397Z,1.09
2018-12-15T05:37:33.643Z,1.06
2018-12-15T05:40:03.011Z,1.07
2018-12-15T05:42:32.317Z,1.14
2018-12-15T05:45:01.435Z,1.27
2018-12-15T05:47:31.140Z,1.70
2018-12-15T05:50:00.758Z,1.28
2018-12-15T05:52:30.370Z,1.58
2018-12-15T05:54:59.583Z,1.85
2018-12-15T05:57:28.961Z,2.05
2018-12-15T05:59:58.128Z,2.48
2018-12-15T06:02:28.141Z,2.70
2018-12-15T06:04:58.979Z,2.76
2018-12-15T06:07:28.387Z,2.83
2018-12-15T06:09:57.996Z,2.88
2018-12-15T06:12:27.391Z,2.91
2018-12-15T06:14:56.572Z,2.99
2018-12-15T06:17:25.721Z,2.51
2018-12-15T06:19:54.953Z,2.74
2018-12-15T06:22:24.378Z,2.88
2018-12-15T06:24:53.582Z,2.96
2018-12-15T06:27:23.007Z,3.03
2018-12-15T06:29:52.269Z,3.20
2018-12-15T06:32:21.519Z,2.89
2018-12-15T06:34:50.876Z,2.46
2018-12-15T06:37:20.231Z,2.64
2018-12-15T06:39:49.699Z,2.96
2018-12-15T06:42:19.108Z,3.09
2018-12-15T06:44:48.429Z,2.78
2018-12-15T06:47:17.697Z,2.71
2018-12-15T06:49:47.182Z,2.92
2018-12-15T06:52:16.404Z,2.96
2018-12-15T06:54:46.063Z,3.17
2018-12-15T06:57:15.320Z,3.08
2018-12-15T06:59:44.656Z,3.13
2018-12-15T07:02:14.206Z,3.15
2018-12-15T07:04:43.799Z,3.21
2018-12-15T07:07:13.121Z,3.23
2018-12-15T07:09:42.625Z,3.15
2018-12-15T07:12:12.116Z,3.10
2018-12-15T07:14:41.497Z,3.14
2018-12-15T07:17:10.796Z,3.09
2018-12-15T07:19:40.167Z,3.07
2018-12-15T07:22:09.460Z,3.20
2018-12-15T07:24:38.843Z,2.83
2018-12-15T07:27:08.064Z,2.89
2018-12-15T07:29:37.214Z,2.73
2018-12-15T07:32:06.508Z,2.52
2018-12-15T07:34:35.971Z,2.91
2018-12-15T07:37:05.257Z,3.02
2018-12-15T07:39:34.187Z,2.91
2018-12-15T07:42:03.372Z,2.70
2018-12-15T07:44:32.948Z,2.81
2018-12-15T07:47:02.417Z,2.93
2018-12-15T07:49:31.723Z,3.56
2018-12-15T07:52:01.315Z,3.93
2018-12-15T07:54:30.694Z,3.42
2018-12-15T07:56:59.812Z,2.38
2018-12-15T07:59:29.091Z,2.30
2018-12-15T08:01:58.430Z,2.16
2018-12-15T08:04:27.650Z,2.15
2018-12-15T08:06:57.063Z,2.07
2018-12-15T08:09:26.496Z,1.79
2018-12-15T08:12:00.715Z,1.77
2018-12-15T08:14:29.888Z,1.86
2018-12-15T08:16:59.224Z,1.79
2018-12-15T08:19:28.584Z,1.86
2018-12-15T08:21:57.827Z,1.89
2018-12-15T08:24:27.262Z,1.94
2018-12-15T08:26:56.482Z,1.96
2018-12-15T08:29:25.879Z,1.91
2018-12-15T08:31:55.078Z,1.93
2018-12-15T08:34:24.412Z,2.00
2018-12-15T08:36:53.584Z,2.09
2018-12-15T08:39:22.967Z,2.12
2018-12-15T08:41:52.240Z,2.24
2018-12-15T08:44:21.502Z,2.11
2018-12-15T08:46:50.640Z,2.14
2018-12-15T08:49:19.934Z,2.11
2018-12-15T08:51:49.244Z,2.02
2018-12-15T08:54:18.452Z,1.97
2018-12-15T08:56:47.689Z,1.99
2018-12-15T08:59:17.052Z,1.95
2018-12-15T09:01:46.461Z,1.93
2018-12-15T09:04:15.617Z,1.86
2018-12-15T09:06:44.841Z,1.92
2018-12-15T09:09:14.023Z,1.75
2018-12-15T09:11:43.428Z,1.85
2018-12-15T09:14:12.547Z,1.89
2018-12-15T09:16:41.901Z,1.96
2018-12-15T09:19:11.602Z,1.96
2018-12-15T09:21:41.181Z,1.80
2018-12-15T09:24:10.228Z,1.85
2018-12-15T09:26:39.504Z,1.90
2018-12-15T09:29:08.677Z,1.91
2018-12-15T09:31:37.981Z,1.76
2018-12-15T09:34:07.391Z,2.10
2018-12-15T09:36:36.917Z,2.01
2018-12-15T09:39:07.251Z,2.09
2018-12-15T09:41:36.455Z,2.08
2018-12-15T09:44:05.606Z,2.08
2018-12-15T09:46:35.124Z,2.23
2018-12-15T09:49:04.512Z,2.23
2018-12-15T09:51:33.858Z,2.26
2018-12-15T09:54:03.221Z,2.25
2018-12-15T09:56:32.533Z,2.17
2018-12-15T09:59:01.822Z,2.20
2018-12-15T10:01:31.008Z,2.15
2018-12-15T10:04:00.179Z,2.21
2018-12-15T10:06:29.471Z,2.13
2018-12-15T10:08:58.648Z,2.08
2018-12-15T10:11:28.156Z,2.15
2018-12-15T10:13:57.520Z,2.19
2018-12-15T10:16:26.831Z,2.09
2018-12-15T10:18:56.200Z,2.17
2018-12-15T10:21:25.539Z,2.19
2018-12-15T10:23:54.964Z,2.11
2018-12-15T10:26:24.276Z,2.11
2018-12-15T10:28:53.497Z,2.14
2018-12-15T10:31:27.788Z,2.16
2018-12-15T10:33:56.879Z,2.07
2018-12-15T10:36:26.310Z,2.01
2018-12-15T10:38:55.670Z,2.03
2018-12-15T10:41:25.031Z,2.06
2018-12-15T10:43:54.415Z,2.20
2018-12-15T10:46:23.853Z,2.17
2018-12-15T10:48:53.259Z,2.10
2018-12-15T10:51:23.549Z,2.00
2018-12-15T10:53:52.906Z,2.05
2018-12-15T10:56:22.238Z,2.11
2018-12-15T10:58:51.771Z,2.18
2018-12-15T11:01:22.717Z,2.18
2018-12-15T11:03:52.213Z,2.26
2018-12-15T11:06:21.548Z,2.14
2018-12-15T11:08:50.939Z,2.17
2018-12-15T11:11:20.240Z,2.06
2018-12-15T11:16:31.752Z,2.22
2018-12-15T11:19:01.558Z,2.15
2018-12-15T11:21:30.871Z,2.23
2018-12-15T11:24:00.327Z,2.33
2018-12-15T11:26:29.528Z,2.19
2018-12-15T11:28:58.867Z,2.17
2018-12-15T11:31:29.105Z,2.27
2018-12-15T11:33:58.492Z,2.14
2018-12-15T11:36:27.896Z,2.13
2018-12-15T11:38:57.195Z,2.23
2018-12-15T11:41:26.768Z,2.30
2018-12-15T11:43:56.148Z,2.23
2018-12-15T11:46:25.407Z,2.22
2018-12-15T11:48:54.766Z,2.11
2018-12-15T11:51:24.087Z,2.21
2018-12-15T11:53:53.553Z,2.16
2018-12-15T11:56:22.867Z,2.20
2018-12-15T11:58:52.351Z,2.19
2018-12-15T12:01:21.707Z,2.24
2018-12-15T12:03:51.016Z,2.32
2018-12-15T12:06:20.507Z,2.27
2018-12-15T12:08:50.019Z,2.24
2018-12-15T12:11:19.342Z,2.26
2018-12-15T12:13:48.797Z,2.20
2018-12-15T12:16:18.007Z,2.25
2018-12-15T12:18:47.195Z,2.15
2018-12-15T12:21:16.984Z,2.30
2018-12-15T12:23:46.232Z,2.22
2018-12-15T12:26:15.629Z,2.21
2018-12-15T12:28:45.104Z,2.22
2018-12-15T12:31:14.328Z,2.19
2018-12-15T12:33:43.641Z,2.18
2018-12-15T12:36:12.858Z,2.22
2018-12-15T12:38:42.253Z,2.26
2018-12-15T12:41:11.687Z,2.33
2018-12-15T12:43:41.323Z,2.37
2018-12-15T12:46:10.776Z,2.22
2018-12-15T12:48:40.198Z,2.22
2018-12-15T12:51:09.707Z,1.99
2018-12-15T12:53:39.027Z,2.13
2018-12-15T12:56:08.315Z,2.11
2018-12-15T12:58:37.459Z,2.17
2018-12-15T13:01:06.871Z,2.25
2018-12-15T13:03:36.058Z,2.30
2018-12-15T13:06:05.378Z,2.31
2018-12-15T13:08:34.669Z,2.29
2018-12-15T13:11:04.104Z,2.15
2018-12-15T13:13:33.922Z,2.26
2018-12-15T13:16:03.529Z,2.27
2018-12-15T13:18:32.895Z,2.30
2018-12-15T13:21:02.403Z,2.19
2018-12-15T13:23:31.673Z,2.26
2018-12-15T13:26:01.020Z,2.40
2018-12-15T13:28:30.386Z,2.34
2018-12-15T13:31:00.030Z,2.36
2018-12-15T13:33:34.239Z,2.41
2018-12-15T13:36:03.698Z,2.29
2018-12-15T13:38:32.982Z,2.21
2018-12-15T13:41:13.980Z,2.20
2018-12-15T13:43:43.047Z,2.24
2018-12-15T13:46:14.075Z,2.20
2018-12-15T13:48:43.979Z,2.17
2018-12-15T13:51:13.476Z,2.20
2018-12-15T13:53:42.896Z,2.18
2018-12-15T13:56:12.244Z,2.18
2018-12-15T13:58:42.085Z,2.20
2018-12-15T14:01:11.397Z,2.18
2018-12-15T14:03:40.794Z,2.14
2018-12-15T14:06:10.088Z,2.11
2018-12-15T14:08:39.479Z,2.07
2018-12-15T14:11:08.764Z,2.18
2018-12-15T14:13:38.099Z,2.24
2018-12-15T14:16:07.315Z,2.18
2018-12-15T14:18:36.567Z,2.29
2018-12-15T14:21:05.724Z,2.25
2018-12-15T14:23:34.936Z,2.26
2018-12-15T14:26:05.575Z,2.21
2018-12-15T14:28:35.071Z,2.20
2018-12-15T14:31:04.189Z,2.17
2018-12-15T14:33:33.387Z,2.30
2018-12-15T14:36:02.666Z,2.15
2018-12-15T14:38:31.908Z,2.19
2018-12-15T14:41:01.443Z,2.14
2018-12-15T14:43:30.831Z,2.12
2018-12-15T14:46:00.145Z,2.20
2018-12-15T14:48:29.533Z,2.09
2018-12-15T14:50:58.636Z,2.16
2018-12-15T14:53:27.900Z,2.08
2018-12-15T14:55:56.966Z,2.10
2018-12-15T14:58:26.348Z,2.08
2018-12-15T15:00:55.615Z,2.12
2018-12-15T15:03:24.824Z,2.19
2018-12-15T15:05:54.181Z,2.24
2018-12-15T15:08:23.519Z,2.09
2018-12-15T15:10:52.810Z,2.13
2018-12-15T15:13:21.987Z,2.13
2018-12-15T15:15:51.211Z,2.08
2018-12-15T15:18:20.579Z,2.25
2018-12-15T15:20:49.879Z,2.18
2018-12-15T15:23:19.125Z,2.02
2018-12-15T15:25:48.333Z,1.99
2018-12-15T15:28:17.615Z,1.99
2018-12-15T15:30:46.857Z,2.00
2018-12-15T15:33:16.102Z,2.11
2018-12-15T15:35:45.489Z,1.98
2018-12-15T15:38:14.539Z,2.15
2018-12-15T15:40:43.976Z,2.15
2018-12-15T15:43:13.216Z,2.39
2018-12-15T15:45:42.447Z,2.12
2018-12-15T15:48:11.753Z,2.15
2018-12-15T15:50:40.909Z,2.07
2018-12-15T15:53:10.128Z,2.07
2018-12-15T15:55:39.428Z,1.95
2018-12-15T15:58:08.565Z,2.08
2018-12-15T16:00:37.743Z,2.03
2018-12-15T16:03:07.012Z,1.93
2018-12-15T16:05:36.303Z,1.94
2018-12-15T16:08:05.432Z,2.00
2018-12-15T16:10:35.032Z,1.89
2018-12-15T16:13:04.943Z,1.93
2018-12-15T16:15:34.951Z,1.94
2018-12-15T16:18:04.215Z,1.88
2018-12-15T16:20:33.564Z,1.92
2018-12-15T16:23:02.792Z,1.90
2018-12-15T16:25:32.159Z,1.88
2018-12-15T16:28:01.445Z,1.92
2018-12-15T16:30:30.628Z,1.88
2018-12-15T16:33:00.081Z,2.06
2018-12-15T16:35:29.236Z,2.04
2018-12-15T16:37:58.588Z,1.94
2018-12-15T16:40:27.888Z,1.87
2018-12-15T16:42:57.149Z,1.97
2018-12-15T16:45:26.613Z,1.97
2018-12-15T16:47:55.871Z,1.82
2018-12-15T16:50:24.990Z,1.89
2018-12-15T16:52:54.353Z,1.93
2018-12-15T16:55:23.775Z,1.87
2018-12-15T16:57:52.988Z,1.92
2018-12-15T17:00:22.076Z,1.87
2018-12-15T17:02:51.425Z,1.81
2018-12-15T17:05:20.793Z,2.00
2018-12-15T17:07:50.359Z,2.01
2018-12-15T17:10:19.458Z,2.22
2018-12-15T17:12:48.895Z,1.97
2018-12-15T17:15:18.176Z,1.99
2018-12-15T17:17:47.589Z,1.98
2018-12-15T17:20:16.954Z,1.91
2018-12-15T17:22:46.548Z,1.78
2018-12-15T17:25:16.133Z,2.06
2018-12-15T17:27:45.400Z,1.93
2018-12-15T17:30:14.838Z,1.89
2018-12-15T17:32:44.126Z,1.77
2018-12-15T17:35:13.486Z,1.89
2018-12-15T17:37:42.836Z,1.71
2018-12-15T17:40:12.439Z,1.77
2018-12-15T17:42:41.648Z,2.05
2018-12-15T17:45:11.068Z,1.95
2018-12-15T17:47:40.289Z,1.99
2018-12-15T17:50:10.595Z,1.86
2018-12-15T17:52:39.810Z,1.76
2018-12-15T17:55:09.112Z,1.71
2018-12-15T17:57:38.425Z,1.77
2018-12-15T18:00:10.197Z,1.74
2018-12-15T18:02:39.531Z,1.90
2018-12-15T18:05:09.672Z,1.91
2018-12-15T18:07:38.856Z,1.90
2018-12-15T18:10:09.157Z,1.86
2018-12-15T18:12:38.491Z,1.90
2018-12-15T18:15:08.429Z,1.94
2018-12-15T18:17:37.599Z,1.72
2018-12-15T18:20:08.113Z,1.70
2018-12-15T18:22:37.308Z,1.69
2018-12-15T18:25:06.768Z,1.62
2018-12-15T18:27:36.043Z,1.72
2018-12-15T18:30:06.336Z,1.82
2018-12-15T18:32:35.540Z,1.70
2018-12-15T18:35:04.631Z,1.77
2018-12-15T18:37:33.768Z,1.67
2018-12-15T18:40:02.992Z,1.71
2018-12-15T18:42:32.223Z,1.64
2018-12-15T18:45:01.516Z,1.74
2018-12-15T18:47:30.747Z,1.78
2018-12-15T18:49:59.867Z,1.73
2018-12-15T18:52:29.228Z,1.81
2018-12-15T18:54:58.471Z,1.74
2018-12-15T18:57:27.859Z,1.62
2018-12-15T18:59:57.173Z,1.80
2018-12-15T19:02:26.548Z,1.65
2018-12-15T19:04:55.895Z,1.63
2018-12-15T19:07:25.022Z,1.66
2018-12-15T19:09:54.303Z,1.59
2018-12-15T19:12:23.524Z,1.59
2018-12-15T19:14:52.905Z,1.57
2018-12-15T19:17:22.109Z,1.53
2018-12-15T19:19:51.312Z,1.54
2018-12-15T19:22:20.659Z,1.51
2018-12-15T19:24:50.071Z,1.59
2018-12-15T19:27:19.332Z,1.51
2018-12-15T19:29:48.880Z,1.53
2018-12-15T19:32:18.172Z,1.54
2018-12-15T19:34:52.445Z,1.59
2018-12-15T19:37:18.631Z,1.58
2018-12-15T19:39:47.900Z,1.50
2018-12-15T19:42:17.275Z,1.51
2018-12-15T19:44:46.522Z,1.44
2018-12-15T19:47:15.836Z,1.45
2018-12-15T19:49:45.178Z,1.40
2018-12-15T19:52:14.522Z,1.48
2018-12-15T19:54:43.865Z,1.39
2018-12-15T19:57:13.127Z,1.51
2018-12-15T19:59:42.414Z,1.62
2018-12-15T20:02:11.609Z,1.67
2018-12-15T20:04:40.816Z,1.73
2018-12-15T20:07:10.128Z,1.65
2018-12-15T20:09:39.698Z,1.64
2018-12-15T20:12:09.015Z,1.55
2018-12-15T20:14:38.717Z,1.52
2018-12-15T20:17:07.884Z,1.53
2018-12-15T20:19:37.096Z,1.33
2018-12-15T20:22:06.288Z,1.37
2018-12-15T20:24:35.798Z,1.41
2018-12-15T20:27:05.201Z,1.33
2018-12-15T20:29:34.527Z,1.41
2018-12-15T20:32:03.989Z,1.47
2018-12-15T20:34:33.180Z,1.43
2018-12-15T20:37:02.556Z,1.32
2018-12-15T20:39:31.972Z,1.38
2018-12-15T20:42:01.145Z,1.32
2018-12-15T20:44:30.288Z,1.41
2018-12-15T20:46:59.864Z,1.34
2018-12-15T20:49:29.177Z,1.36
2018-12-15T20:51:58.447Z,1.37
2018-12-15T20:54:27.540Z,1.27
2018-12-15T20:56:56.684Z,1.36
2018-12-15T20:59:26.719Z,1.18
2018-12-15T21:01:55.943Z,1.28
2018-12-15T21:04:25.174Z,1.18
2018-12-15T21:06:54.592Z,1.23
2018-12-15T21:09:23.852Z,1.26
2018-12-15T21:11:53.123Z,1.27
2018-12-15T21:14:22.419Z,1.29
2018-12-15T21:16:51.528Z,1.17
2018-12-15T21:19:20.775Z,1.16
2018-12-15T21:21:50.171Z,1.11
2018-12-15T21:24:19.776Z,1.18
2018-12-15T21:26:48.927Z,1.08
2018-12-15T21:29:18.255Z,1.05
2018-12-15T21:31:47.577Z,1.07
2018-12-15T21:34:16.940Z,1.02
2018-12-15T21:36:46.123Z,1.15
2018-12-15T21:39:15.368Z,1.13
2018-12-15T21:41:44.633Z,1.05
2018-12-15T21:44:13.908Z,1.06
2018-12-15T21:46:43.359Z,1.10
2018-12-15T21:49:12.568Z,1.03
2018-12-15T21:51:42.079Z,1.05
2018-12-15T21:54:11.525Z,0.99
2018-12-15T21:56:40.960Z,0.98
2018-12-15T21:59:10.363Z,1.07
2018-12-15T22:01:40.979Z,1.00
2018-12-15T22:04:10.466Z,0.99
2018-12-15T22:06:39.780Z,0.89
2018-12-15T22:09:09.272Z,1.03
2018-12-15T22:11:38.632Z,0.95
2018-12-15T22:14:08.346Z,0.93
2018-12-15T22:16:37.741Z,0.83
2018-12-15T22:19:07.063Z,0.75
2018-12-15T22:21:36.455Z,0.77
2018-12-15T22:24:06.011Z,0.68
2018-12-15T22:26:35.364Z,0.64
2018-12-15T22:29:04.728Z,0.64
2018-12-15T22:31:34.555Z,0.71
2018-12-15T22:34:03.880Z,0.57
2018-12-15T22:36:33.339Z,0.66
2018-12-15T22:39:02.604Z,0.59
2018-12-15T22:41:31.863Z,0.66
2018-12-15T22:44:01.234Z,0.62
2018-12-15T22:46:30.527Z,0.48
2018-12-15T22:48:59.951Z,0.65
2018-12-15T22:51:29.020Z,0.64
2018-12-15T22:53:58.387Z,0.54
2018-12-15T22:56:27.845Z,0.48
2018-12-15T22:58:57.260Z,0.42
2018-12-15T23:01:26.553Z,0.46
2018-12-15T23:03:55.868Z,0.51
2018-12-15T23:06:25.300Z,0.52
2018-12-15T23:08:54.759Z,0.40
2018-12-15T23:11:23.945Z,0.40
2018-12-15T23:13:53.191Z,0.45
2018-12-15T23:16:22.593Z,0.41
2018-12-15T23:18:51.985Z,0.39
2018-12-15T23:21:21.172Z,0.48
2018-12-15T23:23:50.419Z,0.39
2018-12-15T23:26:19.627Z,0.43
2018-12-15T23:28:48.924Z,0.36
2018-12-15T23:31:18.332Z,0.40
2018-12-15T23:33:47.524Z,0.38
2018-12-15T23:36:16.923Z,0.40
2018-12-15T23:38:46.173Z,0.34
2018-12-15T23:41:15.475Z,0.38
2018-12-15T23:43:44.973Z,0.28
2018-12-15T23:46:14.260Z,0.32
2018-12-15T23:48:43.505Z,0.27
2018-12-15T23:51:12.715Z,0.29
2018-12-15T23:53:41.867Z,0.39
2018-12-15T23:56:11.310Z,0.36
2018-12-15T23:58:40.635Z,0.45
